North Central West Virginia Airport
KCKB : now visible

Airfield :











YOU CAN JOIN US ON...

 
LOGIN :

Register | Disclaimer

   EN    FR    IT 

 









Legend :    VFR   Marginal VFR   IFR   Intensive IFR   Very Intensive IFR
Visi :
Ceiling :
>= 8 km
>= 3000ft
5 to 8 km
1000 to 3000 ft
1500m to 5 km
500 to 1000 ft
800 to 1500m
200 to 500 ft
< 800m
< 200 ft
Symbols :   Thunderstorms  Fog  Heavy snow  Heavy precipitations  Wind > 20 kt






- Airport Elevation : 1217 ft
- IATA code : CKB


KCKB - North Central West Virginia

CURRENT METAR :
  • 082153Z 00000KT 10SM CLR 32/20 A2994 RMK AO2 SLPNO T03170200 $

EXPIRED METARs :
  • 082053Z 00000KT 10SM CLR 32/20 A2996 RMK AO2 LTG DSNT NE SLPNO T03170200 56020 $
  • 081953Z 00000KT 10SM CLR 32/21 A2997 RMK AO2 SLPNO T03170206 $

TAF KCKB
Valid from the 08 at 18:00 until the 09 at 18:00 UTC


081740Z 0818/0918 00000KT P6SM VCTS SCT070CB
TEMPO 0820/0822 4SM -SHRA BR BKN040
FM090300 00000KT P6SM SCT070
FM090600 00000KT 5SM BR FEW060
FM090800 00000KT 2SM BR FEW060
FM090900 00000KT 1SM BR FEW002
FM091100 00000KT 4SM BR FEW060
FM091200 00000KT P6SM FEW060
KZOB FIR / North America



MET'MAP, your aeronautical weather chart ! - Copyright ORBIFLY December 2007 - Disclaimer

ORBIFLY MET'MAP TEAM :

Programming & Development : Alexandra Zaïnal
Concept & original design : Baudouin d'Aumeries
Assistance for programming : Marc-Olivier Méhu
Technical & hardware support : Manuel Goepfert

Contact : metmap@orbifly.com




SOURCES & CREDITS :

   NOAA       Earth
Advisory